createdAt,value
2018-09-24T00:01:29.473Z,27.47
2018-09-24T00:04:01.520Z,26.73
2018-09-24T00:06:33.452Z,29.93
2018-09-24T00:09:07.374Z,26.70
2018-09-24T00:11:39.284Z,28.73
2018-09-24T00:14:11.310Z,27.07
2018-09-24T00:16:43.415Z,27.40
2018-09-24T00:19:15.993Z,27.50
2018-09-24T00:21:47.761Z,29.00
2018-09-24T00:24:20.078Z,25.73
2018-09-24T00:26:52.312Z,27.30
2018-09-24T00:29:24.709Z,24.23
2018-09-24T00:31:56.828Z,26.23
2018-09-24T00:34:28.581Z,31.87
2018-09-24T00:37:01.132Z,28.47
2018-09-24T00:39:34.471Z,29.20
2018-09-24T00:42:06.899Z,28.37
2018-09-24T00:44:39.347Z,26.10
2018-09-24T00:47:11.933Z,29.20
2018-09-24T00:49:44.305Z,26.00
2018-09-24T00:52:16.334Z,27.10
2018-09-24T00:54:48.146Z,25.40
2018-09-24T00:57:20.129Z,26.13
2018-09-24T00:59:53.066Z,29.73
2018-09-24T01:02:25.090Z,28.30
2018-09-24T01:04:57.238Z,28.40
2018-09-24T01:07:29.574Z,31.47
2018-09-24T01:10:02.028Z,31.97
2018-09-24T01:12:33.759Z,29.40
2018-09-24T01:15:06.207Z,29.70
2018-09-24T01:17:38.506Z,27.57
2018-09-24T01:20:11.640Z,27.47
2018-09-24T01:22:43.769Z,28.90
2018-09-24T01:25:15.931Z,27.43
2018-09-24T01:27:48.006Z,30.50
2018-09-24T01:30:20.144Z,27.77
2018-09-24T01:32:51.913Z,30.10
2018-09-24T01:35:23.847Z,30.37
2018-09-24T01:37:56.043Z,27.23
2018-09-24T01:40:28.173Z,30.87
2018-09-24T01:43:01.246Z,29.30
2018-09-24T01:45:34.149Z,29.63
2018-09-24T01:48:06.194Z,27.20
2018-09-24T01:50:38.284Z,25.67
2018-09-24T01:53:10.550Z,26.97
2018-09-24T01:55:42.492Z,27.47
2018-09-24T01:58:14.541Z,25.67
2018-09-24T02:00:46.888Z,30.57
2018-09-24T02:03:19.018Z,26.67
2018-09-24T02:05:51.175Z,27.20
2018-09-24T02:08:23.074Z,29.23
2018-09-24T02:10:55.949Z,29.67
2018-09-24T02:13:28.834Z,26.77
2018-09-24T02:16:01.099Z,27.77
2018-09-24T02:18:32.923Z,30.17
2018-09-24T02:21:05.089Z,26.87
2018-09-24T02:23:37.333Z,28.80
2018-09-24T02:26:09.813Z,27.27
2018-09-24T02:28:42.436Z,29.53
2018-09-24T02:31:15.330Z,26.47
2018-09-24T02:33:47.069Z,24.87
2018-09-24T02:36:18.948Z,26.70
2018-09-24T02:38:51.176Z,28.93
2018-09-24T02:41:22.928Z,28.47
2018-09-24T02:43:54.865Z,31.83
2018-09-24T02:46:26.857Z,31.57
2018-09-24T02:49:04.787Z,31.40
2018-09-24T02:51:36.633Z,27.97
2018-09-24T02:54:08.694Z,30.57
2018-09-24T02:56:52.313Z,32.30
2018-09-24T02:59:24.188Z,32.37
2018-09-24T03:01:56.290Z,35.03
2018-09-24T03:04:28.231Z,29.63
2018-09-24T03:07:00.754Z,30.40
2018-09-24T03:09:35.381Z,29.37
2018-09-24T03:12:08.399Z,28.47
2018-09-24T03:14:40.262Z,28.17
2018-09-24T03:17:16.815Z,27.33
2018-09-24T03:19:49.189Z,28.23
2018-09-24T03:22:26.077Z,29.47
2018-09-24T03:24:58.402Z,24.80
2018-09-24T03:27:30.041Z,24.97
2018-09-24T03:30:02.511Z,28.83
2018-09-24T03:32:35.107Z,26.70
2018-09-24T03:35:07.344Z,31.40
2018-09-24T03:37:40.155Z,27.43
2018-09-24T03:40:12.237Z,29.20
2018-09-24T03:42:44.765Z,31.73
2018-09-24T03:45:17.187Z,24.40
2018-09-24T03:47:49.238Z,25.03
2018-09-24T03:50:21.383Z,25.53
2018-09-24T03:52:54.056Z,26.20
2018-09-24T03:55:26.072Z,25.07
2018-09-24T03:57:58.580Z,26.50
2018-09-24T04:00:30.589Z,26.43
2018-09-24T04:03:02.759Z,23.90
2018-09-24T04:05:39.660Z,27.80
2018-09-24T04:08:17.703Z,26.13
2018-09-24T04:10:55.295Z,27.87
2018-09-24T04:13:32.379Z,33.20
2018-09-24T04:16:09.616Z,90.20
2018-09-24T04:18:46.788Z,101.00
2018-09-24T04:21:23.866Z,71.70
2018-09-24T04:24:01.329Z,48.40
2018-09-24T04:26:38.324Z,39.63
2018-09-24T04:29:15.384Z,46.37
2018-09-24T04:31:52.328Z,73.83
2018-09-24T04:34:29.324Z,80.33
2018-09-24T04:37:06.329Z,124.70
2018-09-24T04:39:43.407Z,97.63
2018-09-24T04:42:20.708Z,91.50
2018-09-24T04:44:57.583Z,72.27
2018-09-24T04:47:34.452Z,81.57
2018-09-24T04:50:10.988Z,66.87
2018-09-24T04:52:48.030Z,71.17
2018-09-24T04:55:24.805Z,55.40
2018-09-24T04:58:01.770Z,46.63
2018-09-24T05:00:38.737Z,43.43
2018-09-24T05:03:16.296Z,53.63
2018-09-24T05:05:53.243Z,35.63
2018-09-24T05:08:30.024Z,40.33
2018-09-24T05:11:07.044Z,38.00
2018-09-24T05:13:44.473Z,30.57
2018-09-24T05:16:21.582Z,26.03
2018-09-24T05:18:58.758Z,25.93
2018-09-24T05:21:35.976Z,21.97
2018-09-24T05:24:12.982Z,27.47
2018-09-24T05:26:49.363Z,26.60
2018-09-24T05:29:26.306Z,29.97
2018-09-24T05:32:03.720Z,25.27
2018-09-24T05:34:40.977Z,27.23
2018-09-24T05:37:18.445Z,23.63
2018-09-24T05:39:57.411Z,26.77
2018-09-24T05:42:34.021Z,29.87
2018-09-24T05:45:11.287Z,27.70
2018-09-24T05:47:48.223Z,24.00
2018-09-24T05:50:25.717Z,23.40
2018-09-24T05:53:04.240Z,24.63
2018-09-24T05:55:42.473Z,26.90
2018-09-24T05:58:19.584Z,25.47
2018-09-24T06:00:56.156Z,21.17
2018-09-24T06:03:32.999Z,29.33
2018-09-24T06:06:10.216Z,26.10
2018-09-24T06:08:47.167Z,28.27
2018-09-24T06:11:24.285Z,34.80
2018-09-24T06:14:02.118Z,25.20
2018-09-24T06:16:38.916Z,36.60
2018-09-24T06:19:16.651Z,29.77
2018-09-24T06:21:53.646Z,26.53
2018-09-24T06:24:30.682Z,31.00
2018-09-24T06:27:07.755Z,27.30
2018-09-24T06:29:44.895Z,29.23
2018-09-24T06:32:21.568Z,30.90
2018-09-24T06:34:58.624Z,24.07
2018-09-24T06:37:35.784Z,28.10
2018-09-24T06:40:12.473Z,30.27
2018-09-24T06:42:49.643Z,25.00
2018-09-24T06:45:26.487Z,23.67
2018-09-24T06:48:03.396Z,29.93
2018-09-24T06:50:40.474Z,24.33
2018-09-24T06:53:17.437Z,20.53
2018-09-24T06:55:54.860Z,24.20
2018-09-24T06:58:31.753Z,23.63
2018-09-24T07:01:08.926Z,26.83
2018-09-24T07:03:46.845Z,21.57
2018-09-24T07:06:23.756Z,26.73
2018-09-24T07:09:01.007Z,29.37
2018-09-24T07:11:38.176Z,21.07
2018-09-24T07:14:16.166Z,21.47
2018-09-24T07:16:53.450Z,24.77
2018-09-24T07:19:30.985Z,22.93
2018-09-24T07:22:08.563Z,22.07
2018-09-24T07:24:45.753Z,21.20
2018-09-24T07:27:24.536Z,24.77
2018-09-24T07:30:01.958Z,22.57
2018-09-24T07:32:39.304Z,19.53
2018-09-24T07:35:17.086Z,17.77
2018-09-24T07:37:54.532Z,24.23
2018-09-24T07:40:32.890Z,19.30
2018-09-24T07:43:09.810Z,29.73
2018-09-24T07:45:48.541Z,28.37
2018-09-24T07:48:25.961Z,18.63
2018-09-24T07:51:02.642Z,29.60
2018-09-24T07:53:39.169Z,22.47
2018-09-24T07:56:16.188Z,21.80
2018-09-24T07:58:53.296Z,22.77
2018-09-24T08:01:30.441Z,19.40
2018-09-24T08:04:07.603Z,21.00
2018-09-24T08:06:45.226Z,17.93
2018-09-24T08:09:22.434Z,24.70
2018-09-24T08:11:59.851Z,21.40
2018-09-24T08:14:36.987Z,17.20
2018-09-24T08:17:14.019Z,15.37
2018-09-24T08:19:50.979Z,16.97
2018-09-24T08:22:27.877Z,7.70
2018-09-24T08:25:04.822Z,12.37
2018-09-24T08:27:42.495Z,8.30
2018-09-24T08:30:19.084Z,10.23
2018-09-24T08:32:56.022Z,7.03
2018-09-24T08:35:34.600Z,10.37
2018-09-24T08:38:12.008Z,7.73
2018-09-24T08:40:48.693Z,12.13
2018-09-24T08:43:25.625Z,7.17
2018-09-24T08:46:02.671Z,10.53
2018-09-24T08:48:39.207Z,7.70
2018-09-24T08:51:16.152Z,8.97
2018-09-24T08:53:53.649Z,7.23
2018-09-24T08:56:31.079Z,10.83
2018-09-24T08:59:08.092Z,8.47
2018-09-24T09:01:45.239Z,7.60
2018-09-24T09:04:22.224Z,10.73
2018-09-24T09:06:58.532Z,10.30
2018-09-24T09:09:35.672Z,8.90
2018-09-24T09:12:13.524Z,6.67
2018-09-24T09:14:50.470Z,8.63
2018-09-24T09:17:27.696Z,11.00
2018-09-24T09:20:04.976Z,7.83
2018-09-24T09:22:41.748Z,8.30
2018-09-24T09:25:18.409Z,7.73
2018-09-24T09:27:56.241Z,7.70
2018-09-24T09:30:33.637Z,8.43
2018-09-24T09:33:10.821Z,7.60
2018-09-24T09:35:49.283Z,6.07
2018-09-24T09:38:26.373Z,7.40
2018-09-24T09:41:03.827Z,5.67
2018-09-24T09:43:40.367Z,6.20
2018-09-24T09:46:18.498Z,5.80
2018-09-24T09:48:55.882Z,6.03
2018-09-24T09:51:33.720Z,8.30
2018-09-24T09:54:10.879Z,6.33
2018-09-24T09:56:48.033Z,6.43
2018-09-24T09:59:25.143Z,6.50
2018-09-24T10:02:02.373Z,5.03
2018-09-24T10:04:39.419Z,7.67
2018-09-24T10:07:16.720Z,9.73
2018-09-24T10:09:54.026Z,6.17
2018-09-24T10:12:31.586Z,6.53
2018-09-24T10:15:09.185Z,6.67
2018-09-24T10:17:46.442Z,7.93
2018-09-24T10:20:22.988Z,6.60
2018-09-24T10:22:59.925Z,5.10
2018-09-24T10:25:36.944Z,6.87
2018-09-24T10:28:14.177Z,5.40
2018-09-24T10:30:51.434Z,6.63
2018-09-24T10:33:29.330Z,6.80
2018-09-24T10:36:06.451Z,4.80
2018-09-24T10:38:43.023Z,6.20
2018-09-24T10:41:20.067Z,5.47
2018-09-24T10:43:57.104Z,4.93
2018-09-24T10:46:34.354Z,5.53
2018-09-24T10:49:11.653Z,5.67
2018-09-24T10:51:49.213Z,5.57
2018-09-24T10:54:26.636Z,6.43
2018-09-24T10:57:03.551Z,5.30
2018-09-24T10:59:40.807Z,7.73
2018-09-24T11:02:18.947Z,5.37
2018-09-24T11:04:56.758Z,5.20
2018-09-24T11:07:34.645Z,4.73
2018-09-24T11:10:12.588Z,7.50
2018-09-24T11:12:49.493Z,7.23
2018-09-24T11:15:26.179Z,5.17
2018-09-24T11:18:03.404Z,6.00
2018-09-24T11:20:40.888Z,9.37
2018-09-24T11:23:18.066Z,15.83
2018-09-24T11:25:55.978Z,15.37
2018-09-24T11:28:33.945Z,14.07
2018-09-24T11:31:12.078Z,18.63
2018-09-24T11:33:48.939Z,15.80
2018-09-24T11:36:26.205Z,16.10
2018-09-24T11:39:03.405Z,16.80
2018-09-24T11:41:40.931Z,16.60
2018-09-24T11:44:18.585Z,40.07
2018-09-24T11:46:56.345Z,24.87
2018-09-24T11:49:34.290Z,34.97
2018-09-24T11:52:10.917Z,28.47
2018-09-24T11:54:48.404Z,23.17
2018-09-24T11:57:25.563Z,34.37
2018-09-24T12:00:03.033Z,21.73
2018-09-24T12:02:40.488Z,40.30
2018-09-24T12:05:17.846Z,25.77
2018-09-24T12:07:55.180Z,21.63
2018-09-24T12:10:31.972Z,21.97
2018-09-24T12:13:09.481Z,25.17
2018-09-24T12:15:46.659Z,23.73
2018-09-24T12:18:24.257Z,23.23
2018-09-24T12:21:01.420Z,24.13
2018-09-24T12:23:38.354Z,13.10
2018-09-24T12:26:15.624Z,19.00
